sensor_id;sensor_type;location;lat;lon;timestamp;pressure;altitude;pressure_sealevel;temperature;humidity
49030;BME280;43337;52.070;4.508;2022-09-29T00:01:54;100103.06;;;8.36;91.75
49030;BME280;43337;52.070;4.508;2022-09-29T00:04:19;100107.19;;;8.41;91.82
49030;BME280;43337;52.070;4.508;2022-09-29T00:06:45;100108.13;;;8.40;91.91
49030;BME280;43337;52.070;4.508;2022-09-29T00:09:10;100112.50;;;8.40;91.66
49030;BME280;43337;52.070;4.508;2022-09-29T00:11:35;100076.00;;;8.15;91.56
49030;BME280;43337;52.070;4.508;2022-09-29T00:14:01;100094.69;;;8.27;91.65
49030;BME280;43337;52.070;4.508;2022-09-29T00:16:26;100102.41;;;8.30;91.92
49030;BME280;43337;52.070;4.508;2022-09-29T00:18:53;100105.03;;;8.30;92.01
49030;BME280;43337;52.070;4.508;2022-09-29T00:21:19;100111.84;;;8.35;91.61
49030;BME280;43337;52.070;4.508;2022-09-29T00:23:45;100106.88;;;8.28;91.97
49030;BME280;43337;52.070;4.508;2022-09-29T00:26:16;100062.72;;;7.99;91.95
49030;BME280;43337;52.070;4.508;2022-09-29T00:28:53;100111.19;;;8.29;91.75
49030;BME280;43337;52.070;4.508;2022-09-29T00:31:24;100095.88;;;8.20;92.12
49030;BME280;43337;52.070;4.508;2022-09-29T00:33:49;100097.53;;;8.23;92.15
49030;BME280;43337;52.070;4.508;2022-09-29T00:36:17;100113.81;;;8.29;91.95
49030;BME280;43337;52.070;4.508;2022-09-29T00:38:44;100095.94;;;8.19;92.19
49030;BME280;43337;52.070;4.508;2022-09-29T00:41:17;100105.38;;;8.23;92.07
49030;BME280;43337;52.070;4.508;2022-09-29T00:44:06;100118.28;;;8.27;92.33
49030;BME280;43337;52.070;4.508;2022-09-29T00:46:57;100113.03;;;8.27;92.21
49030;BME280;43337;52.070;4.508;2022-09-29T00:51:57;100096.84;;;8.18;92.45
49030;BME280;43337;52.070;4.508;2022-09-29T00:54:24;100087.63;;;8.09;92.23
49030;BME280;43337;52.070;4.508;2022-09-29T00:56:53;100095.06;;;8.18;92.26
49030;BME280;43337;52.070;4.508;2022-09-29T00:59:26;100115.91;;;8.21;92.21
49030;BME280;43337;52.070;4.508;2022-09-29T01:01:57;100092.66;;;8.14;92.13
49030;BME280;43337;52.070;4.508;2022-09-29T01:04:24;100096.56;;;8.05;92.25
49030;BME280;43337;52.070;4.508;2022-09-29T01:06:55;100107.69;;;8.10;92.18
49030;BME280;43337;52.070;4.508;2022-09-29T01:09:28;100107.63;;;8.12;92.62
49030;BME280;43337;52.070;4.508;2022-09-29T01:11:56;100106.06;;;8.07;92.59
49030;BME280;43337;52.070;4.508;2022-09-29T01:14:23;100093.34;;;7.98;92.24
49030;BME280;43337;52.070;4.508;2022-09-29T01:16:50;100108.59;;;8.09;92.90
49030;BME280;43337;52.070;4.508;2022-09-29T01:22:02;100110.38;;;8.08;92.83
49030;BME280;43337;52.070;4.508;2022-09-29T01:25:16;100110.38;;;8.08;92.73
49030;BME280;43337;52.070;4.508;2022-09-29T01:31:11;100113.00;;;8.08;92.74
49030;BME280;43337;52.070;4.508;2022-09-29T01:37:00;100100.94;;;8.04;92.41
49030;BME280;43337;52.070;4.508;2022-09-29T01:39:50;100103.22;;;8.12;92.36
49030;BME280;43337;52.070;4.508;2022-09-29T01:42:23;100098.97;;;8.10;92.85
49030;BME280;43337;52.070;4.508;2022-09-29T01:44:58;100094.00;;;8.03;92.78
49030;BME280;43337;52.070;4.508;2022-09-29T01:47:29;100099.94;;;8.07;92.98
49030;BME280;43337;52.070;4.508;2022-09-29T01:50:02;100103.44;;;8.07;92.98
49030;BME280;43337;52.070;4.508;2022-09-29T01:52:32;100107.53;;;8.13;92.98
49030;BME280;43337;52.070;4.508;2022-09-29T01:55:07;100107.63;;;8.12;93.33
49030;BME280;43337;52.070;4.508;2022-09-29T01:57:53;100100.03;;;8.05;92.89
49030;BME280;43337;52.070;4.508;2022-09-29T02:00:22;100108.41;;;8.14;93.41
49030;BME280;43337;52.070;4.508;2022-09-29T02:05:32;100114.56;;;8.13;93.08
49030;BME280;43337;52.070;4.508;2022-09-29T02:08:09;100101.78;;;8.05;92.88
49030;BME280;43337;52.070;4.508;2022-09-29T02:10:45;100099.38;;;8.00;93.05
49030;BME280;43337;52.070;4.508;2022-09-29T02:13:14;100052.53;;;7.72;93.08
49030;BME280;43337;52.070;4.508;2022-09-29T02:15:44;100092.75;;;7.92;93.28
49030;BME280;43337;52.070;4.508;2022-09-29T02:18:21;100105.81;;;7.93;93.07
49030;BME280;43337;52.070;4.508;2022-09-29T02:20:47;100071.81;;;7.71;93.30
49030;BME280;43337;52.070;4.508;2022-09-29T02:23:13;100106.06;;;7.87;93.42
49030;BME280;43337;52.070;4.508;2022-09-29T02:25:39;100104.47;;;7.83;93.45
49030;BME280;43337;52.070;4.508;2022-09-29T02:28:05;100091.78;;;7.74;93.38
49030;BME280;43337;52.070;4.508;2022-09-29T02:30:32;100062.91;;;7.55;93.32
49030;BME280;43337;52.070;4.508;2022-09-29T02:32:58;100112.44;;;7.81;93.23
49030;BME280;43337;52.070;4.508;2022-09-29T02:35:28;100117.78;;;7.78;93.21
49030;BME280;43337;52.070;4.508;2022-09-29T02:38:06;100116.94;;;7.78;93.39
49030;BME280;43337;52.070;4.508;2022-09-29T02:49:12;100111.41;;;7.64;93.22
49030;BME280;43337;52.070;4.508;2022-09-29T02:51:47;100087.53;;;7.51;93.37
49030;BME280;43337;52.070;4.508;2022-09-29T02:54:32;100111.63;;;7.59;92.93
49030;BME280;43337;52.070;4.508;2022-09-29T02:57:25;100115.28;;;7.55;92.95
49030;BME280;43337;52.070;4.508;2022-09-29T03:00:08;100112.03;;;7.50;92.92
49030;BME280;43337;52.070;4.508;2022-09-29T03:02:39;100100.94;;;7.43;93.03
49030;BME280;43337;52.070;4.508;2022-09-29T03:05:08;100099.25;;;7.42;92.95
49030;BME280;43337;52.070;4.508;2022-09-29T03:07:36;100067.97;;;7.17;93.24
49030;BME280;43337;52.070;4.508;2022-09-29T03:10:03;100112.50;;;7.38;92.85
49030;BME280;43337;52.070;4.508;2022-09-29T03:12:28;100115.84;;;7.41;92.95
49030;BME280;43337;52.070;4.508;2022-09-29T03:14:54;100086.38;;;7.16;93.21
49030;BME280;43337;52.070;4.508;2022-09-29T03:17:19;100109.47;;;7.26;93.29
49030;BME280;43337;52.070;4.508;2022-09-29T03:19:44;100115.63;;;7.25;93.18
49030;BME280;43337;52.070;4.508;2022-09-29T03:22:10;100078.13;;;7.03;93.13
49030;BME280;43337;52.070;4.508;2022-09-29T03:24:35;100099.56;;;7.13;92.87
49030;BME280;43337;52.070;4.508;2022-09-29T03:27:01;100134.88;;;7.24;93.14
49030;BME280;43337;52.070;4.508;2022-09-29T03:29:26;100102.41;;;7.06;93.14
49030;BME280;43337;52.070;4.508;2022-09-29T03:31:52;100113.44;;;7.15;93.27
49030;BME280;43337;52.070;4.508;2022-09-29T03:34:17;100134.22;;;7.19;92.98
49030;BME280;43337;52.070;4.508;2022-09-29T03:36:43;100132.47;;;7.18;93.24
49030;BME280;43337;52.070;4.508;2022-09-29T03:39:08;100130.16;;;7.10;93.07
49030;BME280;43337;52.070;4.508;2022-09-29T03:41:33;100128.47;;;7.09;92.92
49030;BME280;43337;52.070;4.508;2022-09-29T03:43:59;100123.50;;;7.03;93.19
49030;BME280;43337;52.070;4.508;2022-09-29T03:46:24;100119.22;;;7.01;93.09
49030;BME280;43337;52.070;4.508;2022-09-29T03:48:49;100120.94;;;7.02;93.09
49030;BME280;43337;52.070;4.508;2022-09-29T03:51:15;100135.56;;;7.07;93.25
49030;BME280;43337;52.070;4.508;2022-09-29T03:53:40;100136.50;;;7.05;93.16
49030;BME280;43337;52.070;4.508;2022-09-29T03:56:06;100099.00;;;6.82;92.65
49030;BME280;43337;52.070;4.508;2022-09-29T03:58:31;100124.75;;;6.93;93.05
49030;BME280;43337;52.070;4.508;2022-09-29T04:00:57;100127.09;;;7.01;93.09
49030;BME280;43337;52.070;4.508;2022-09-29T04:03:22;100102.66;;;6.78;93.01
49030;BME280;43337;52.070;4.508;2022-09-29T04:05:48;100140.09;;;7.02;92.96
49030;BME280;43337;52.070;4.508;2022-09-29T04:08:14;100131.75;;;6.93;93.22
49030;BME280;43337;52.070;4.508;2022-09-29T04:10:39;100150.69;;;6.99;93.16
49030;BME280;43337;52.070;4.508;2022-09-29T04:13:06;100149.06;;;6.97;93.10
49030;BME280;43337;52.070;4.508;2022-09-29T04:15:35;100104.06;;;6.65;93.24
49030;BME280;43337;52.070;4.508;2022-09-29T04:18:00;100100.69;;;6.62;92.97
49030;BME280;43337;52.070;4.508;2022-09-29T04:20:26;100142.34;;;6.90;93.24
49030;BME280;43337;52.070;4.508;2022-09-29T04:22:52;100144.16;;;6.88;93.15
49030;BME280;43337;52.070;4.508;2022-09-29T04:25:17;100120.53;;;6.67;92.94
49030;BME280;43337;52.070;4.508;2022-09-29T04:27:43;100153.88;;;6.84;93.04
49030;BME280;43337;52.070;4.508;2022-09-29T04:30:09;100090.75;;;6.48;93.22
49030;BME280;43337;52.070;4.508;2022-09-29T04:32:34;100104.50;;;6.53;93.39
49030;BME280;43337;52.070;4.508;2022-09-29T04:35:00;100147.25;;;6.75;93.33
49030;BME280;43337;52.070;4.508;2022-09-29T04:37:25;100163.50;;;6.83;93.38
49030;BME280;43337;52.070;4.508;2022-09-29T04:39:52;100144.97;;;6.66;93.27
49030;BME280;43337;52.070;4.508;2022-09-29T04:42:18;100153.47;;;6.73;92.87
49030;BME280;43337;52.070;4.508;2022-09-29T04:44:44;100143.97;;;6.70;93.03
49030;BME280;43337;52.070;4.508;2022-09-29T04:47:09;100163.97;;;6.71;92.81
49030;BME280;43337;52.070;4.508;2022-09-29T04:49:35;100163.00;;;6.74;93.09
49030;BME280;43337;52.070;4.508;2022-09-29T04:52:00;100173.47;;;6.74;93.09
49030;BME280;43337;52.070;4.508;2022-09-29T04:54:32;100163.31;;;6.65;93.06
49030;BME280;43337;52.070;4.508;2022-09-29T04:56:58;100152.19;;;6.59;93.22
49030;BME280;43337;52.070;4.508;2022-09-29T04:59:25;100179.72;;;6.70;93.20
49030;BME280;43337;52.070;4.508;2022-09-29T05:01:50;100175.63;;;6.63;93.01
49030;BME280;43337;52.070;4.508;2022-09-29T05:04:16;100180.78;;;6.64;93.29
49030;BME280;43337;52.070;4.508;2022-09-29T05:06:41;100185.25;;;6.62;93.22
49030;BME280;43337;52.070;4.508;2022-09-29T05:09:07;100170.88;;;6.49;93.02
49030;BME280;43337;52.070;4.508;2022-09-29T05:11:33;100154.97;;;6.31;93.04
49030;BME280;43337;52.070;4.508;2022-09-29T05:13:58;100185.81;;;6.47;93.00
49030;BME280;43337;52.070;4.508;2022-09-29T05:16:24;100157.69;;;6.28;93.22
49030;BME280;43337;52.070;4.508;2022-09-29T05:18:50;100202.16;;;6.52;93.15
49030;BME280;43337;52.070;4.508;2022-09-29T05:21:15;100197.00;;;6.50;93.22
49030;BME280;43337;52.070;4.508;2022-09-29T05:23:41;100180.00;;;6.39;93.17
49030;BME280;43337;52.070;4.508;2022-09-29T05:26:08;100205.72;;;6.49;93.08
49030;BME280;43337;52.070;4.508;2022-09-29T05:28:34;100203.13;;;6.49;93.30
49030;BME280;43337;52.070;4.508;2022-09-29T05:31:06;100191.22;;;6.41;93.12
49030;BME280;43337;52.070;4.508;2022-09-29T05:33:33;100210.06;;;6.50;93.25
49030;BME280;43337;52.070;4.508;2022-09-29T05:35:58;100163.19;;;6.21;93.13
49030;BME280;43337;52.070;4.508;2022-09-29T05:38:24;100211.84;;;6.50;93.25
49030;BME280;43337;52.070;4.508;2022-09-29T05:40:50;100217.06;;;6.50;93.26
49030;BME280;43337;52.070;4.508;2022-09-29T05:43:16;100215.47;;;6.46;93.22
49030;BME280;43337;52.070;4.508;2022-09-29T05:45:41;100211.25;;;6.42;93.08
49030;BME280;43337;52.070;4.508;2022-09-29T05:48:07;100188.97;;;6.31;93.05
49030;BME280;43337;52.070;4.508;2022-09-29T05:50:33;100201.06;;;6.34;93.13
49030;BME280;43337;52.070;4.508;2022-09-29T05:53:05;100227.75;;;6.44;93.26
49030;BME280;43337;52.070;4.508;2022-09-29T05:55:31;100227.66;;;6.45;93.03
49030;BME280;43337;52.070;4.508;2022-09-29T05:57:57;100222.41;;;6.47;93.44
49030;BME280;43337;52.070;4.508;2022-09-29T06:00:22;100213.97;;;6.39;93.49
49030;BME280;43337;52.070;4.508;2022-09-29T06:02:47;100184.78;;;6.26;93.57
49030;BME280;43337;52.070;4.508;2022-09-29T06:05:13;100216.38;;;6.45;93.40
49030;BME280;43337;52.070;4.508;2022-09-29T06:07:38;100221.44;;;6.49;93.60
49030;BME280;43337;52.070;4.508;2022-09-29T06:10:03;100215.41;;;6.47;93.68
49030;BME280;43337;52.070;4.508;2022-09-29T06:12:33;100180.47;;;6.25;93.28
49030;BME280;43337;52.070;4.508;2022-09-29T06:14:59;100196.72;;;6.33;93.42
49030;BME280;43337;52.070;4.508;2022-09-29T06:17:24;100189.81;;;6.32;93.42
49030;BME280;43337;52.070;4.508;2022-09-29T06:19:49;100189.06;;;6.28;93.97
49030;BME280;43337;52.070;4.508;2022-09-29T06:22:16;100202.53;;;6.41;93.46
49030;BME280;43337;52.070;4.508;2022-09-29T06:24:43;100177.94;;;6.23;93.52
49030;BME280;43337;52.070;4.508;2022-09-29T06:27:08;100187.19;;;6.32;93.67
49030;BME280;43337;52.070;4.508;2022-09-29T06:29:35;100242.69;;;6.65;93.72
49030;BME280;43337;52.070;4.508;2022-09-29T06:32:01;100247.75;;;6.70;93.76
49030;BME280;43337;52.070;4.508;2022-09-29T06:34:26;100186.06;;;6.39;93.69
49030;BME280;43337;52.070;4.508;2022-09-29T06:36:52;100233.41;;;6.80;94.09
49030;BME280;43337;52.070;4.508;2022-09-29T06:39:35;100240.41;;;6.79;94.15
49030;BME280;43337;52.070;4.508;2022-09-29T06:42:01;100242.72;;;6.87;94.11
49030;BME280;43337;52.070;4.508;2022-09-29T06:44:27;100239.25;;;6.87;93.77
49030;BME280;43337;52.070;4.508;2022-09-29T06:46:55;100257.94;;;7.01;93.85
49030;BME280;43337;52.070;4.508;2022-09-29T06:49:21;100245.69;;;7.01;93.95
49030;BME280;43337;52.070;4.508;2022-09-29T06:51:47;100252.31;;;7.12;93.94
49030;BME280;43337;52.070;4.508;2022-09-29T06:54:14;100265.88;;;7.21;93.97
49030;BME280;43337;52.070;4.508;2022-09-29T06:56:40;100261.31;;;7.26;93.86
49030;BME280;43337;52.070;4.508;2022-09-29T06:59:07;100252.91;;;7.18;93.73
49030;BME280;43337;52.070;4.508;2022-09-29T07:01:32;100228.97;;;7.05;94.14
49030;BME280;43337;52.070;4.508;2022-09-29T07:03:58;100253.47;;;7.26;93.82
49030;BME280;43337;52.070;4.508;2022-09-29T07:06:25;100220.94;;;7.10;93.77
49030;BME280;43337;52.070;4.508;2022-09-29T07:08:54;100265.38;;;7.35;94.16
49030;BME280;43337;52.070;4.508;2022-09-29T07:11:20;100249.09;;;7.27;94.04
49030;BME280;43337;52.070;4.508;2022-09-29T07:13:46;100283.16;;;7.49;94.19
49030;BME280;43337;52.070;4.508;2022-09-29T07:16:12;100247.03;;;7.35;94.00
49030;BME280;43337;52.070;4.508;2022-09-29T07:18:39;100267.41;;;7.50;94.32
49030;BME280;43337;52.070;4.508;2022-09-29T07:21:07;100279.28;;;7.59;94.29
49030;BME280;43337;52.070;4.508;2022-09-29T07:23:35;100279.09;;;7.64;94.30
49030;BME280;43337;52.070;4.508;2022-09-29T07:26:00;100279.78;;;7.69;93.96
49030;BME280;43337;52.070;4.508;2022-09-29T07:28:27;100237.91;;;7.45;94.09
49030;BME280;43337;52.070;4.508;2022-09-29T07:31:00;100282.94;;;7.77;94.43
49030;BME280;43337;52.070;4.508;2022-09-29T07:33:27;100243.75;;;7.52;94.10
49030;BME280;43337;52.070;4.508;2022-09-29T07:35:54;100292.31;;;7.82;94.04
49030;BME280;43337;52.070;4.508;2022-09-29T07:38:20;100280.06;;;7.83;94.35
49030;BME280;43337;52.070;4.508;2022-09-29T07:40:45;100262.16;;;7.72;94.43
49030;BME280;43337;52.070;4.508;2022-09-29T07:43:10;100298.00;;;7.94;94.22
49030;BME280;43337;52.070;4.508;2022-09-29T07:45:36;100268.84;;;7.79;94.26
49030;BME280;43337;52.070;4.508;2022-09-29T07:48:01;100257.78;;;7.73;94.51
49030;BME280;43337;52.070;4.508;2022-09-29T07:50:27;100311.44;;;8.06;94.66
49030;BME280;43337;52.070;4.508;2022-09-29T07:52:52;100294.94;;;8.04;94.37
49030;BME280;43337;52.070;4.508;2022-09-29T07:55:18;100311.94;;;8.16;94.42
49030;BME280;43337;52.070;4.508;2022-09-29T07:57:46;100312.78;;;8.17;94.58
49030;BME280;43337;52.070;4.508;2022-09-29T08:00:15;100289.56;;;8.07;94.89
49030;BME280;43337;52.070;4.508;2022-09-29T08:02:41;100311.53;;;8.25;94.59
49030;BME280;43337;52.070;4.508;2022-09-29T08:05:08;100319.91;;;8.35;94.82
49030;BME280;43337;52.070;4.508;2022-09-29T08:07:34;100330.88;;;8.45;95.00
49030;BME280;43337;52.070;4.508;2022-09-29T08:09:59;100324.75;;;8.46;94.78
49030;BME280;43337;52.070;4.508;2022-09-29T08:12:25;100316.19;;;8.41;94.89
49030;BME280;43337;52.070;4.508;2022-09-29T08:14:51;100340.84;;;8.57;94.98
49030;BME280;43337;52.070;4.508;2022-09-29T08:17:17;100315.22;;;8.43;95.24
49030;BME280;43337;52.070;4.508;2022-09-29T08:19:42;100322.63;;;8.54;95.18
49030;BME280;43337;52.070;4.508;2022-09-29T08:22:10;100337.84;;;8.66;95.59
49030;BME280;43337;52.070;4.508;2022-09-29T08:24:36;100344.44;;;8.76;95.40
49030;BME280;43337;52.070;4.508;2022-09-29T08:27:04;100352.09;;;8.81;95.43
49030;BME280;43337;52.070;4.508;2022-09-29T08:29:31;100351.78;;;8.89;95.90
49030;BME280;43337;52.070;4.508;2022-09-29T08:31:57;100357.47;;;8.98;96.23
49030;BME280;43337;52.070;4.508;2022-09-29T08:34:22;100325.53;;;8.89;96.25
49030;BME280;43337;52.070;4.508;2022-09-29T08:36:47;100329.84;;;8.90;96.13
49030;BME280;43337;52.070;4.508;2022-09-29T08:39:13;100366.31;;;9.16;95.54
49030;BME280;43337;52.070;4.508;2022-09-29T08:44:46;100367.31;;;9.33;95.85
49030;BME280;43337;52.070;4.508;2022-09-29T08:47:34;100379.00;;;9.46;95.82
49030;BME280;43337;52.070;4.508;2022-09-29T08:50:09;100371.88;;;9.48;95.18
49030;BME280;43337;52.070;4.508;2022-09-29T08:52:44;100400.56;;;9.73;95.88
49030;BME280;43337;52.070;4.508;2022-09-29T08:57:41;100398.19;;;9.86;95.96
49030;BME280;43337;52.070;4.508;2022-09-29T09:00:11;100394.94;;;9.99;95.71
49030;BME280;43337;52.070;4.508;2022-09-29T09:05:27;100403.66;;;10.19;95.86
49030;BME280;43337;52.070;4.508;2022-09-29T09:08:05;100409.34;;;10.29;95.95
49030;BME280;43337;52.070;4.508;2022-09-29T09:11:10;100407.91;;;10.40;95.82
49030;BME280;43337;52.070;4.508;2022-09-29T09:14:41;100397.69;;;10.51;95.84
49030;BME280;43337;52.070;4.508;2022-09-29T09:16:59;100379.41;;;10.48;95.88
49030;BME280;43337;52.070;4.508;2022-09-29T09:25:49;100400.19;;;10.89;96.20
49030;BME280;43337;52.070;4.508;2022-09-29T09:28:18;100401.09;;;11.06;95.10
49030;BME280;43337;52.070;4.508;2022-09-29T09:30:55;100394.84;;;11.08;95.55
49030;BME280;43337;52.070;4.508;2022-09-29T09:33:30;100390.63;;;11.21;95.80
49030;BME280;43337;52.070;4.508;2022-09-29T09:36:12;100383.34;;;11.27;95.03
49030;BME280;43337;52.070;4.508;2022-09-29T09:41:16;100416.75;;;11.59;94.73
49030;BME280;43337;52.070;4.508;2022-09-29T09:43:47;100375.97;;;11.49;94.10
49030;BME280;43337;52.070;4.508;2022-09-29T09:46:38;100413.13;;;11.78;93.77
49030;BME280;43337;52.070;4.508;2022-09-29T09:54:45;100413.59;;;12.02;91.64
49030;BME280;43337;52.070;4.508;2022-09-29T10:00:11;100412.59;;;12.20;90.71
49030;BME280;43337;52.070;4.508;2022-09-29T10:02:49;100403.56;;;12.24;89.91
49030;BME280;43337;52.070;4.508;2022-09-29T10:05:22;100417.69;;;12.39;89.48
49030;BME280;43337;52.070;4.508;2022-09-29T10:07:52;100380.66;;;12.25;88.63
49030;BME280;43337;52.070;4.508;2022-09-29T10:10:27;100415.13;;;12.53;88.71
49030;BME280;43337;52.070;4.508;2022-09-29T10:13:04;100418.16;;;12.61;86.70
49030;BME280;43337;52.070;4.508;2022-09-29T10:18:17;100411.22;;;12.75;86.76
49030;BME280;43337;52.070;4.508;2022-09-29T10:20:43;100375.22;;;12.58;86.85
49030;BME280;43337;52.070;4.508;2022-09-29T10:23:27;100411.16;;;12.90;86.72
49030;BME280;43337;52.070;4.508;2022-09-29T10:28:22;100411.66;;;12.97;85.69
49030;BME280;43337;52.070;4.508;2022-09-29T10:30:48;100415.47;;;13.07;85.60
49030;BME280;43337;52.070;4.508;2022-09-29T10:33:20;100401.66;;;13.02;84.80
49030;BME280;43337;52.070;4.508;2022-09-29T10:35:47;100420.09;;;13.18;84.56
49030;BME280;43337;52.070;4.508;2022-09-29T10:38:22;100396.69;;;13.12;84.84
49030;BME280;43337;52.070;4.508;2022-09-29T10:43:24;100414.31;;;13.41;81.82
49030;BME280;43337;52.070;4.508;2022-09-29T10:45:51;100430.75;;;13.47;79.81
49030;BME280;43337;52.070;4.508;2022-09-29T10:48:23;100437.38;;;13.54;81.12
49030;BME280;43337;52.070;4.508;2022-09-29T10:50:59;100440.66;;;13.57;79.70
49030;BME280;43337;52.070;4.508;2022-09-29T10:55:59;100404.59;;;13.42;80.28
49030;BME280;43337;52.070;4.508;2022-09-29T10:58:30;100445.28;;;13.68;80.00
49030;BME280;43337;52.070;4.508;2022-09-29T11:01:10;100442.25;;;13.74;79.51
49030;BME280;43337;52.070;4.508;2022-09-29T11:03:56;100423.63;;;13.76;79.86
49030;BME280;43337;52.070;4.508;2022-09-29T11:06:34;100427.88;;;13.92;80.04
49030;BME280;43337;52.070;4.508;2022-09-29T11:09:08;100445.25;;;14.11;79.21
49030;BME280;43337;52.070;4.508;2022-09-29T11:11:57;100399.63;;;13.93;78.78
49030;BME280;43337;52.070;4.508;2022-09-29T11:16:56;100425.22;;;14.07;75.66
49030;BME280;43337;52.070;4.508;2022-09-29T11:19:22;100458.75;;;14.21;76.57
49030;BME280;43337;52.070;4.508;2022-09-29T11:24:57;100446.53;;;14.32;76.41
49030;BME280;43337;52.070;4.508;2022-09-29T11:35:53;100450.41;;;14.68;74.76
49030;BME280;43337;52.070;4.508;2022-09-29T11:38:30;100453.41;;;14.76;74.14
49030;BME280;43337;52.070;4.508;2022-09-29T11:46:59;100468.81;;;14.84;74.14
49030;BME280;43337;52.070;4.508;2022-09-29T11:52:22;100468.53;;;15.01;74.28
49030;BME280;43337;52.070;4.508;2022-09-29T11:57:56;100469.41;;;15.14;72.21
49030;BME280;43337;52.070;4.508;2022-09-29T12:03:26;100468.03;;;15.22;69.46
49030;BME280;43337;52.070;4.508;2022-09-29T12:06:29;100471.84;;;15.18;71.47
49030;BME280;43337;52.070;4.508;2022-09-29T12:10:05;100440.41;;;14.99;71.58
49030;BME280;43337;52.070;4.508;2022-09-29T12:17:35;100475.25;;;15.20;72.65
49030;BME280;43337;52.070;4.508;2022-09-29T12:20:18;100476.53;;;15.27;72.97
49030;BME280;43337;52.070;4.508;2022-09-29T12:22:47;100473.69;;;15.30;72.97
49030;BME280;43337;52.070;4.508;2022-09-29T12:25:16;100447.13;;;15.17;72.37
49030;BME280;43337;52.070;4.508;2022-09-29T12:27:44;100476.22;;;15.31;72.10
49030;BME280;43337;52.070;4.508;2022-09-29T12:30:19;100463.59;;;15.22;71.75
49030;BME280;43337;52.070;4.508;2022-09-29T12:35:36;100477.91;;;15.32;72.16
49030;BME280;43337;52.070;4.508;2022-09-29T12:40:50;100479.78;;;15.18;71.39
49030;BME280;43337;52.070;4.508;2022-09-29T12:43:31;100480.75;;;15.04;71.54
49030;BME280;43337;52.070;4.508;2022-09-29T12:46:04;100484.63;;;14.98;71.14
49030;BME280;43337;52.070;4.508;2022-09-29T12:51:36;100492.44;;;14.87;70.83
49030;BME280;43337;52.070;4.508;2022-09-29T12:56:37;100466.81;;;14.60;71.04
49030;BME280;43337;52.070;4.508;2022-09-29T12:59:15;100492.78;;;14.68;71.02
49030;BME280;43337;52.070;4.508;2022-09-29T13:01:46;100499.25;;;14.64;70.90
49030;BME280;43337;52.070;4.508;2022-09-29T13:18:24;100501.63;;;14.69;71.19
49030;BME280;43337;52.070;4.508;2022-09-29T13:21:03;100495.38;;;14.70;70.73
49030;BME280;43337;52.070;4.508;2022-09-29T13:28:51;100494.38;;;14.85;70.69
49030;BME280;43337;52.070;4.508;2022-09-29T13:31:26;100515.53;;;14.99;70.85
49030;BME280;43337;52.070;4.508;2022-09-29T13:33:55;100513.94;;;15.09;70.51
49030;BME280;43337;52.070;4.508;2022-09-29T13:36:30;100511.53;;;15.19;70.45
49030;BME280;43337;52.070;4.508;2022-09-29T13:39:00;100486.06;;;15.17;70.08
49030;BME280;43337;52.070;4.508;2022-09-29T13:49:15;100509.41;;;15.24;68.11
49030;BME280;43337;52.070;4.508;2022-09-29T13:54:30;100519.50;;;15.32;69.20
49030;BME280;43337;52.070;4.508;2022-09-29T13:57:19;100519.19;;;15.36;69.02
49030;BME280;43337;52.070;4.508;2022-09-29T14:00:14;100518.34;;;15.36;69.38
49030;BME280;43337;52.070;4.508;2022-09-29T14:02:45;100500.72;;;15.22;69.18
49030;BME280;43337;52.070;4.508;2022-09-29T14:10:41;100532.19;;;15.54;68.84
49030;BME280;43337;52.070;4.508;2022-09-29T14:13:17;100500.75;;;15.48;68.32
49030;BME280;43337;52.070;4.508;2022-09-29T14:15:49;100526.16;;;15.65;68.44
49030;BME280;43337;52.070;4.508;2022-09-29T14:21:01;100519.47;;;15.72;68.73
49030;BME280;43337;52.070;4.508;2022-09-29T14:26:44;100529.38;;;15.95;68.31
49030;BME280;43337;52.070;4.508;2022-09-29T14:29:19;100532.34;;;16.03;68.09
49030;BME280;43337;52.070;4.508;2022-09-29T14:31:54;100535.94;;;16.15;67.98
49030;BME280;43337;52.070;4.508;2022-09-29T14:34:21;100541.03;;;16.18;67.50
49030;BME280;43337;52.070;4.508;2022-09-29T14:36:51;100532.72;;;16.10;68.12
49030;BME280;43337;52.070;4.508;2022-09-29T14:39:18;100515.63;;;16.01;67.29
49030;BME280;43337;52.070;4.508;2022-09-29T14:41:47;100544.09;;;16.12;67.28
49030;BME280;43337;52.070;4.508;2022-09-29T14:44:24;100550.69;;;16.06;67.36
49030;BME280;43337;52.070;4.508;2022-09-29T14:47:15;100558.97;;;16.02;67.21
49030;BME280;43337;52.070;4.508;2022-09-29T14:50:20;100553.78;;;16.00;67.99
49030;BME280;43337;52.070;4.508;2022-09-29T14:53:31;100542.00;;;15.92;68.35
49030;BME280;43337;52.070;4.508;2022-09-29T14:56:27;100550.81;;;15.92;68.15
49030;BME280;43337;52.070;4.508;2022-09-29T14:59:13;100554.00;;;15.97;68.63
49030;BME280;43337;52.070;4.508;2022-09-29T15:02:15;100564.09;;;16.05;68.59
49030;BME280;43337;52.070;4.508;2022-09-29T15:04:43;100569.19;;;16.08;68.79
49030;BME280;43337;52.070;4.508;2022-09-29T15:07:15;100576.19;;;16.09;68.26
49030;BME280;43337;52.070;4.508;2022-09-29T15:09:47;100575.34;;;16.08;68.05
49030;BME280;43337;52.070;4.508;2022-09-29T15:12:15;100548.38;;;15.89;68.12
49030;BME280;43337;52.070;4.508;2022-09-29T15:14:41;100572.38;;;16.00;68.07
49030;BME280;43337;52.070;4.508;2022-09-29T15:20:00;100584.16;;;15.96;67.93
49030;BME280;43337;52.070;4.508;2022-09-29T15:25:28;100593.94;;;15.96;67.98
49030;BME280;43337;52.070;4.508;2022-09-29T15:28:01;100559.63;;;15.80;67.80
49030;BME280;43337;52.070;4.508;2022-09-29T15:30:29;100593.19;;;15.94;67.74
49030;BME280;43337;52.070;4.508;2022-09-29T15:33:23;100594.16;;;15.93;67.76
49030;BME280;43337;52.070;4.508;2022-09-29T15:36:02;100597.00;;;15.90;67.42
49030;BME280;43337;52.070;4.508;2022-09-29T15:41:17;100600.94;;;15.84;66.51
49030;BME280;43337;52.070;4.508;2022-09-29T15:43:59;100600.31;;;15.80;66.19
49030;BME280;43337;52.070;4.508;2022-09-29T15:46:27;100604.84;;;15.78;66.21
49030;BME280;43337;52.070;4.508;2022-09-29T15:49:13;100613.84;;;15.76;66.04
49030;BME280;43337;52.070;4.508;2022-09-29T15:51:41;100614.09;;;15.73;65.96